sensor_id;sensor_type;location;lat;lon;timestamp;P1;durP1;ratioP1;P2;durP2;ratioP2
53253;SDS011;75200;53.048;7.552;2024-01-06T00:01:41;16.70;;;10.38;;
53253;SDS011;75200;53.048;7.552;2024-01-06T00:04:07;16.88;;;10.18;;
53253;SDS011;75200;53.048;7.552;2024-01-06T00:06:33;15.10;;;9.38;;
53253;SDS011;75200;53.048;7.552;2024-01-06T00:08:59;18.92;;;9.57;;
53253;SDS011;75200;53.048;7.552;2024-01-06T00:11:25;15.27;;;10.05;;
53253;SDS011;75200;53.048;7.552;2024-01-06T00:13:51;18.02;;;10.50;;
53253;SDS011;75200;53.048;7.552;2024-01-06T00:16:17;19.73;;;10.70;;
53253;SDS011;75200;53.048;7.552;2024-01-06T00:18:44;16.45;;;10.95;;
53253;SDS011;75200;53.048;7.552;2024-01-06T00:21:10;16.92;;;11.10;;
53253;SDS011;75200;53.048;7.552;2024-01-06T00:23:36;16.58;;;10.60;;
53253;SDS011;75200;53.048;7.552;2024-01-06T00:26:01;18.10;;;10.80;;
53253;SDS011;75200;53.048;7.552;2024-01-06T00:28:28;12.65;;;8.90;;
53253;SDS011;75200;53.048;7.552;2024-01-06T00:30:54;15.75;;;9.85;;
53253;SDS011;75200;53.048;7.552;2024-01-06T00:33:21;20.95;;;11.70;;
53253;SDS011;75200;53.048;7.552;2024-01-06T00:35:47;17.20;;;10.55;;
53253;SDS011;75200;53.048;7.552;2024-01-06T00:38:13;18.15;;;9.88;;
53253;SDS011;75200;53.048;7.552;2024-01-06T00:40:39;19.90;;;11.05;;
53253;SDS011;75200;53.048;7.552;2024-01-06T00:43:05;14.20;;;8.95;;
53253;SDS011;75200;53.048;7.552;2024-01-06T00:45:31;15.63;;;9.68;;
53253;SDS011;75200;53.048;7.552;2024-01-06T00:47:56;15.27;;;9.45;;
53253;SDS011;75200;53.048;7.552;2024-01-06T00:50:22;14.52;;;9.57;;
53253;SDS011;75200;53.048;7.552;2024-01-06T00:52:48;17.08;;;10.02;;
53253;SDS011;75200;53.048;7.552;2024-01-06T00:55:18;14.75;;;9.27;;
53253;SDS011;75200;53.048;7.552;2024-01-06T00:57:44;17.02;;;10.32;;
53253;SDS011;75200;53.048;7.552;2024-01-06T01:00:11;17.85;;;10.98;;
53253;SDS011;75200;53.048;7.552;2024-01-06T01:02:38;15.68;;;10.13;;
53253;SDS011;75200;53.048;7.552;2024-01-06T01:05:04;15.25;;;9.48;;
53253;SDS011;75200;53.048;7.552;2024-01-06T01:07:32;20.88;;;11.18;;
53253;SDS011;75200;53.048;7.552;2024-01-06T01:09:58;19.20;;;11.55;;
53253;SDS011;75200;53.048;7.552;2024-01-06T01:12:24;16.55;;;10.85;;
53253;SDS011;75200;53.048;7.552;2024-01-06T01:14:50;21.98;;;12.63;;
53253;SDS011;75200;53.048;7.552;2024-01-06T01:17:17;21.42;;;12.15;;
53253;SDS011;75200;53.048;7.552;2024-01-06T01:19:43;16.17;;;10.20;;
53253;SDS011;75200;53.048;7.552;2024-01-06T01:22:09;18.45;;;11.40;;
53253;SDS011;75200;53.048;7.552;2024-01-06T01:24:35;20.95;;;12.07;;
53253;SDS011;75200;53.048;7.552;2024-01-06T01:27:01;17.65;;;11.70;;
53253;SDS011;75200;53.048;7.552;2024-01-06T01:29:27;19.30;;;11.68;;
53253;SDS011;75200;53.048;7.552;2024-01-06T01:31:53;22.92;;;12.40;;
53253;SDS011;75200;53.048;7.552;2024-01-06T01:34:20;18.17;;;11.65;;
53253;SDS011;75200;53.048;7.552;2024-01-06T01:36:46;21.73;;;12.35;;
53253;SDS011;75200;53.048;7.552;2024-01-06T01:39:12;13.50;;;9.45;;
53253;SDS011;75200;53.048;7.552;2024-01-06T01:41:39;19.15;;;11.25;;
53253;SDS011;75200;53.048;7.552;2024-01-06T01:44:05;16.58;;;10.85;;
53253;SDS011;75200;53.048;7.552;2024-01-06T01:46:31;14.13;;;10.00;;
53253;SDS011;75200;53.048;7.552;2024-01-06T01:48:58;15.25;;;10.68;;
53253;SDS011;75200;53.048;7.552;2024-01-06T01:51:29;17.92;;;11.70;;
53253;SDS011;75200;53.048;7.552;2024-01-06T01:53:56;17.52;;;12.05;;
53253;SDS011;75200;53.048;7.552;2024-01-06T01:56:23;16.90;;;10.95;;
53253;SDS011;75200;53.048;7.552;2024-01-06T01:58:49;19.17;;;12.57;;
53253;SDS011;75200;53.048;7.552;2024-01-06T02:01:16;18.85;;;12.93;;
53253;SDS011;75200;53.048;7.552;2024-01-06T02:03:42;21.30;;;14.07;;
53253;SDS011;75200;53.048;7.552;2024-01-06T02:06:09;23.08;;;13.93;;
53253;SDS011;75200;53.048;7.552;2024-01-06T02:08:35;23.35;;;14.15;;
53253;SDS011;75200;53.048;7.552;2024-01-06T02:11:01;23.08;;;13.45;;
53253;SDS011;75200;53.048;7.552;2024-01-06T02:13:35;18.00;;;13.02;;
53253;SDS011;75200;53.048;7.552;2024-01-06T02:16:04;19.80;;;12.77;;
53253;SDS011;75200;53.048;7.552;2024-01-06T02:18:31;23.35;;;14.25;;
53253;SDS011;75200;53.048;7.552;2024-01-06T02:20:57;18.70;;;12.43;;
53253;SDS011;75200;53.048;7.552;2024-01-06T02:23:24;19.33;;;12.50;;
53253;SDS011;75200;53.048;7.552;2024-01-06T02:25:50;24.38;;;14.38;;
53253;SDS011;75200;53.048;7.552;2024-01-06T02:28:16;23.40;;;14.30;;
53253;SDS011;75200;53.048;7.552;2024-01-06T02:30:43;24.90;;;15.55;;
53253;SDS011;75200;53.048;7.552;2024-01-06T02:33:09;22.80;;;14.88;;
53253;SDS011;75200;53.048;7.552;2024-01-06T02:35:35;25.65;;;15.90;;
53253;SDS011;75200;53.048;7.552;2024-01-06T02:38:01;23.92;;;14.48;;
53253;SDS011;75200;53.048;7.552;2024-01-06T02:40:28;27.67;;;15.95;;
53253;SDS011;75200;53.048;7.552;2024-01-06T02:42:54;23.70;;;14.70;;
53253;SDS011;75200;53.048;7.552;2024-01-06T02:45:20;23.77;;;15.48;;
53253;SDS011;75200;53.048;7.552;2024-01-06T02:47:46;20.77;;;13.82;;
53253;SDS011;75200;53.048;7.552;2024-01-06T02:50:12;25.02;;;14.93;;
53253;SDS011;75200;53.048;7.552;2024-01-06T02:52:38;24.85;;;15.20;;
53253;SDS011;75200;53.048;7.552;2024-01-06T02:55:04;19.40;;;13.00;;
53253;SDS011;75200;53.048;7.552;2024-01-06T02:57:31;19.00;;;13.57;;
53253;SDS011;75200;53.048;7.552;2024-01-06T02:59:57;24.75;;;15.18;;
53253;SDS011;75200;53.048;7.552;2024-01-06T03:02:23;21.77;;;14.50;;
53253;SDS011;75200;53.048;7.552;2024-01-06T03:04:49;24.27;;;14.50;;
53253;SDS011;75200;53.048;7.552;2024-01-06T03:07:15;28.27;;;15.43;;
53253;SDS011;75200;53.048;7.552;2024-01-06T03:09:41;16.33;;;11.88;;
53253;SDS011;75200;53.048;7.552;2024-01-06T03:12:08;23.17;;;12.93;;
53253;SDS011;75200;53.048;7.552;2024-01-06T03:14:35;21.85;;;14.23;;
53253;SDS011;75200;53.048;7.552;2024-01-06T03:17:01;27.33;;;15.20;;
53253;SDS011;75200;53.048;7.552;2024-01-06T03:19:28;24.58;;;14.27;;
53253;SDS011;75200;53.048;7.552;2024-01-06T03:21:54;22.90;;;13.85;;
53253;SDS011;75200;53.048;7.552;2024-01-06T03:24:21;21.65;;;13.43;;
53253;SDS011;75200;53.048;7.552;2024-01-06T03:26:47;21.95;;;13.38;;
53253;SDS011;75200;53.048;7.552;2024-01-06T03:29:13;21.50;;;13.30;;
53253;SDS011;75200;53.048;7.552;2024-01-06T03:31:43;20.70;;;11.77;;
53253;SDS011;75200;53.048;7.552;2024-01-06T03:34:09;19.70;;;12.63;;
53253;SDS011;75200;53.048;7.552;2024-01-06T03:36:36;22.10;;;13.30;;
53253;SDS011;75200;53.048;7.552;2024-01-06T03:39:03;25.20;;;14.05;;
53253;SDS011;75200;53.048;7.552;2024-01-06T03:41:29;15.90;;;11.63;;
53253;SDS011;75200;53.048;7.552;2024-01-06T03:43:55;25.10;;;15.15;;
53253;SDS011;75200;53.048;7.552;2024-01-06T03:46:22;22.75;;;14.00;;
53253;SDS011;75200;53.048;7.552;2024-01-06T03:48:48;24.17;;;14.68;;
53253;SDS011;75200;53.048;7.552;2024-01-06T03:51:14;23.10;;;13.73;;
53253;SDS011;75200;53.048;7.552;2024-01-06T03:53:40;22.65;;;14.50;;
53253;SDS011;75200;53.048;7.552;2024-01-06T03:56:06;18.42;;;12.93;;
53253;SDS011;75200;53.048;7.552;2024-01-06T03:58:33;24.35;;;14.52;;
53253;SDS011;75200;53.048;7.552;2024-01-06T04:00:59;23.48;;;15.48;;
53253;SDS011;75200;53.048;7.552;2024-01-06T04:03:26;23.10;;;14.70;;
53253;SDS011;75200;53.048;7.552;2024-01-06T04:05:52;21.20;;;13.82;;
53253;SDS011;75200;53.048;7.552;2024-01-06T04:08:18;22.27;;;14.60;;
53253;SDS011;75200;53.048;7.552;2024-01-06T04:10:44;19.67;;;12.93;;
53253;SDS011;75200;53.048;7.552;2024-01-06T04:13:11;23.88;;;15.18;;
53253;SDS011;75200;53.048;7.552;2024-01-06T04:15:37;22.33;;;13.93;;
53253;SDS011;75200;53.048;7.552;2024-01-06T04:18:04;23.80;;;14.90;;
53253;SDS011;75200;53.048;7.552;2024-01-06T04:20:31;21.25;;;13.23;;
53253;SDS011;75200;53.048;7.552;2024-01-06T04:22:57;24.25;;;15.05;;
53253;SDS011;75200;53.048;7.552;2024-01-06T04:25:23;21.15;;;14.35;;
53253;SDS011;75200;53.048;7.552;2024-01-06T04:27:50;23.73;;;14.23;;
53253;SDS011;75200;53.048;7.552;2024-01-06T04:30:16;22.52;;;14.45;;
53253;SDS011;75200;53.048;7.552;2024-01-06T04:32:42;25.48;;;15.02;;
53253;SDS011;75200;53.048;7.552;2024-01-06T04:35:09;23.90;;;14.73;;
53253;SDS011;75200;53.048;7.552;2024-01-06T04:37:35;22.60;;;13.77;;
53253;SDS011;75200;53.048;7.552;2024-01-06T04:40:02;23.13;;;15.13;;
53253;SDS011;75200;53.048;7.552;2024-01-06T04:42:29;23.73;;;14.60;;
53253;SDS011;75200;53.048;7.552;2024-01-06T04:44:55;23.45;;;13.75;;
53253;SDS011;75200;53.048;7.552;2024-01-06T04:47:21;26.83;;;15.30;;
53253;SDS011;75200;53.048;7.552;2024-01-06T04:49:47;19.35;;;13.55;;
53253;SDS011;75200;53.048;7.552;2024-01-06T04:52:13;22.35;;;14.90;;
53253;SDS011;75200;53.048;7.552;2024-01-06T04:54:39;22.05;;;13.45;;
53253;SDS011;75200;53.048;7.552;2024-01-06T04:57:05;25.13;;;15.35;;
53253;SDS011;75200;53.048;7.552;2024-01-06T04:59:31;23.27;;;14.43;;
53253;SDS011;75200;53.048;7.552;2024-01-06T05:01:58;20.58;;;12.77;;
53253;SDS011;75200;53.048;7.552;2024-01-06T05:04:24;22.63;;;13.82;;
53253;SDS011;75200;53.048;7.552;2024-01-06T05:06:53;25.33;;;14.32;;
53253;SDS011;75200;53.048;7.552;2024-01-06T05:09:20;18.55;;;12.48;;
53253;SDS011;75200;53.048;7.552;2024-01-06T05:11:46;21.45;;;13.40;;
53253;SDS011;75200;53.048;7.552;2024-01-06T05:14:12;24.48;;;15.23;;
53253;SDS011;75200;53.048;7.552;2024-01-06T05:16:39;21.70;;;13.95;;
53253;SDS011;75200;53.048;7.552;2024-01-06T05:19:05;22.25;;;13.75;;
53253;SDS011;75200;53.048;7.552;2024-01-06T05:21:31;22.83;;;14.70;;
53253;SDS011;75200;53.048;7.552;2024-01-06T05:23:58;19.63;;;12.80;;
53253;SDS011;75200;53.048;7.552;2024-01-06T05:26:24;20.17;;;12.77;;
53253;SDS011;75200;53.048;7.552;2024-01-06T05:28:51;20.88;;;12.95;;
53253;SDS011;75200;53.048;7.552;2024-01-06T05:31:17;22.85;;;13.77;;
53253;SDS011;75200;53.048;7.552;2024-01-06T05:33:43;21.77;;;13.20;;
53253;SDS011;75200;53.048;7.552;2024-01-06T05:36:10;21.17;;;12.75;;
53253;SDS011;75200;53.048;7.552;2024-01-06T05:38:36;26.35;;;14.38;;
53253;SDS011;75200;53.048;7.552;2024-01-06T05:41:02;24.88;;;13.75;;
53253;SDS011;75200;53.048;7.552;2024-01-06T05:43:28;20.98;;;13.77;;
53253;SDS011;75200;53.048;7.552;2024-01-06T05:45:54;26.33;;;15.40;;
53253;SDS011;75200;53.048;7.552;2024-01-06T05:48:21;35.28;;;17.70;;
53253;SDS011;75200;53.048;7.552;2024-01-06T05:50:47;31.80;;;16.08;;
53253;SDS011;75200;53.048;7.552;2024-01-06T05:53:13;25.83;;;14.00;;
53253;SDS011;75200;53.048;7.552;2024-01-06T05:55:43;26.80;;;15.40;;
53253;SDS011;75200;53.048;7.552;2024-01-06T05:58:09;27.02;;;15.52;;
53253;SDS011;75200;53.048;7.552;2024-01-06T06:00:35;29.25;;;14.57;;
53253;SDS011;75200;53.048;7.552;2024-01-06T06:03:01;27.70;;;15.20;;
53253;SDS011;75200;53.048;7.552;2024-01-06T06:05:27;27.73;;;15.38;;
53253;SDS011;75200;53.048;7.552;2024-01-06T06:07:54;31.77;;;15.02;;
53253;SDS011;75200;53.048;7.552;2024-01-06T06:10:20;27.33;;;14.85;;
53253;SDS011;75200;53.048;7.552;2024-01-06T06:12:46;24.52;;;14.38;;
53253;SDS011;75200;53.048;7.552;2024-01-06T06:15:12;27.63;;;14.95;;
53253;SDS011;75200;53.048;7.552;2024-01-06T06:17:39;25.60;;;14.27;;
53253;SDS011;75200;53.048;7.552;2024-01-06T06:20:05;25.80;;;14.93;;
53253;SDS011;75200;53.048;7.552;2024-01-06T06:22:32;27.77;;;14.98;;
53253;SDS011;75200;53.048;7.552;2024-01-06T06:25:01;29.25;;;15.07;;
53253;SDS011;75200;53.048;7.552;2024-01-06T06:27:28;24.92;;;14.73;;
53253;SDS011;75200;53.048;7.552;2024-01-06T06:29:55;24.30;;;14.55;;
53253;SDS011;75200;53.048;7.552;2024-01-06T06:32:21;24.50;;;14.30;;
53253;SDS011;75200;53.048;7.552;2024-01-06T06:34:47;20.40;;;12.65;;
53253;SDS011;75200;53.048;7.552;2024-01-06T06:37:13;25.23;;;14.35;;
53253;SDS011;75200;53.048;7.552;2024-01-06T06:39:40;20.40;;;12.80;;
53253;SDS011;75200;53.048;7.552;2024-01-06T06:42:09;29.52;;;16.83;;
53253;SDS011;75200;53.048;7.552;2024-01-06T06:44:36;23.38;;;14.02;;
53253;SDS011;75200;53.048;7.552;2024-01-06T06:47:03;24.20;;;14.25;;
53253;SDS011;75200;53.048;7.552;2024-01-06T06:49:29;22.55;;;13.48;;
53253;SDS011;75200;53.048;7.552;2024-01-06T06:51:55;19.17;;;12.90;;
53253;SDS011;75200;53.048;7.552;2024-01-06T06:54:21;24.58;;;14.43;;
53253;SDS011;75200;53.048;7.552;2024-01-06T06:56:47;21.52;;;13.80;;
53253;SDS011;75200;53.048;7.552;2024-01-06T06:59:13;22.30;;;13.93;;
53253;SDS011;75200;53.048;7.552;2024-01-06T07:01:40;24.13;;;14.10;;
53253;SDS011;75200;53.048;7.552;2024-01-06T07:04:06;21.55;;;14.60;;
53253;SDS011;75200;53.048;7.552;2024-01-06T07:06:32;24.13;;;14.95;;
53253;SDS011;75200;53.048;7.552;2024-01-06T07:08:58;23.15;;;14.07;;
53253;SDS011;75200;53.048;7.552;2024-01-06T07:11:25;23.60;;;15.23;;
53253;SDS011;75200;53.048;7.552;2024-01-06T07:13:51;21.92;;;14.05;;
53253;SDS011;75200;53.048;7.552;2024-01-06T07:16:17;21.25;;;13.93;;
53253;SDS011;75200;53.048;7.552;2024-01-06T07:18:43;25.45;;;14.93;;
53253;SDS011;75200;53.048;7.552;2024-01-06T07:21:09;21.25;;;14.48;;
53253;SDS011;75200;53.048;7.552;2024-01-06T07:23:37;19.42;;;12.98;;
53253;SDS011;75200;53.048;7.552;2024-01-06T07:26:03;21.70;;;12.93;;
53253;SDS011;75200;53.048;7.552;2024-01-06T07:28:29;22.15;;;15.07;;
53253;SDS011;75200;53.048;7.552;2024-01-06T07:30:56;23.25;;;14.95;;
53253;SDS011;75200;53.048;7.552;2024-01-06T07:33:22;23.08;;;14.98;;
53253;SDS011;75200;53.048;7.552;2024-01-06T07:35:48;21.73;;;14.00;;
53253;SDS011;75200;53.048;7.552;2024-01-06T07:38:14;23.55;;;15.70;;
53253;SDS011;75200;53.048;7.552;2024-01-06T07:40:40;20.02;;;13.13;;
53253;SDS011;75200;53.048;7.552;2024-01-06T07:43:07;26.92;;;16.35;;
53253;SDS011;75200;53.048;7.552;2024-01-06T07:45:33;25.83;;;15.65;;
53253;SDS011;75200;53.048;7.552;2024-01-06T07:47:59;23.67;;;16.10;;
53253;SDS011;75200;53.048;7.552;2024-01-06T07:50:26;23.10;;;14.93;;
53253;SDS011;75200;53.048;7.552;2024-01-06T07:52:53;22.60;;;15.35;;
53253;SDS011;75200;53.048;7.552;2024-01-06T07:55:19;21.17;;;15.02;;
53253;SDS011;75200;53.048;7.552;2024-01-06T07:57:45;24.48;;;15.30;;
53253;SDS011;75200;53.048;7.552;2024-01-06T08:00:12;25.70;;;16.38;;
53253;SDS011;75200;53.048;7.552;2024-01-06T08:02:41;25.45;;;16.60;;
53253;SDS011;75200;53.048;7.552;2024-01-06T08:05:07;25.90;;;16.48;;
53253;SDS011;75200;53.048;7.552;2024-01-06T08:07:34;23.30;;;15.48;;
53253;SDS011;75200;53.048;7.552;2024-01-06T08:10:00;24.75;;;16.63;;
53253;SDS011;75200;53.048;7.552;2024-01-06T08:12:30;24.58;;;16.00;;
53253;SDS011;75200;53.048;7.552;2024-01-06T08:14:56;27.13;;;17.58;;
53253;SDS011;75200;53.048;7.552;2024-01-06T08:17:22;24.90;;;16.15;;
53253;SDS011;75200;53.048;7.552;2024-01-06T08:19:48;23.98;;;15.77;;
53253;SDS011;75200;53.048;7.552;2024-01-06T08:22:14;22.33;;;14.95;;
53253;SDS011;75200;53.048;7.552;2024-01-06T08:24:40;21.55;;;14.35;;
53253;SDS011;75200;53.048;7.552;2024-01-06T08:27:06;24.25;;;16.75;;
53253;SDS011;75200;53.048;7.552;2024-01-06T08:29:33;24.38;;;15.70;;
53253;SDS011;75200;53.048;7.552;2024-01-06T08:31:59;23.95;;;16.38;;
53253;SDS011;75200;53.048;7.552;2024-01-06T08:34:25;24.15;;;16.42;;
53253;SDS011;75200;53.048;7.552;2024-01-06T08:36:52;27.33;;;17.42;;
53253;SDS011;75200;53.048;7.552;2024-01-06T08:39:18;24.65;;;16.63;;
53253;SDS011;75200;53.048;7.552;2024-01-06T08:41:44;24.15;;;16.73;;
53253;SDS011;75200;53.048;7.552;2024-01-06T08:44:11;24.55;;;16.98;;
53253;SDS011;75200;53.048;7.552;2024-01-06T08:46:37;25.98;;;17.38;;
53253;SDS011;75200;53.048;7.552;2024-01-06T08:49:04;23.50;;;16.17;;
53253;SDS011;75200;53.048;7.552;2024-01-06T08:51:31;28.17;;;17.25;;
53253;SDS011;75200;53.048;7.552;2024-01-06T08:53:57;25.25;;;16.20;;
53253;SDS011;75200;53.048;7.552;2024-01-06T08:56:23;23.63;;;16.60;;
53253;SDS011;75200;53.048;7.552;2024-01-06T08:58:49;27.75;;;17.67;;
53253;SDS011;75200;53.048;7.552;2024-01-06T09:01:15;23.55;;;15.50;;
53253;SDS011;75200;53.048;7.552;2024-01-06T09:03:42;21.67;;;15.07;;
53253;SDS011;75200;53.048;7.552;2024-01-06T09:06:08;26.13;;;16.70;;
53253;SDS011;75200;53.048;7.552;2024-01-06T09:08:34;24.50;;;16.15;;
53253;SDS011;75200;53.048;7.552;2024-01-06T09:11:00;23.75;;;15.77;;
53253;SDS011;75200;53.048;7.552;2024-01-06T09:13:26;24.50;;;16.00;;
53253;SDS011;75200;53.048;7.552;2024-01-06T09:15:52;27.55;;;17.27;;
53253;SDS011;75200;53.048;7.552;2024-01-06T09:18:19;24.08;;;15.98;;
53253;SDS011;75200;53.048;7.552;2024-01-06T09:20:45;20.58;;;13.95;;
53253;SDS011;75200;53.048;7.552;2024-01-06T09:23:15;22.38;;;15.38;;
53253;SDS011;75200;53.048;7.552;2024-01-06T09:25:42;25.27;;;16.38;;
53253;SDS011;75200;53.048;7.552;2024-01-06T09:28:08;24.75;;;16.08;;
53253;SDS011;75200;53.048;7.552;2024-01-06T09:30:35;23.92;;;15.98;;
53253;SDS011;75200;53.048;7.552;2024-01-06T09:33:02;25.35;;;16.60;;
53253;SDS011;75200;53.048;7.552;2024-01-06T09:35:28;27.67;;;16.45;;
53253;SDS011;75200;53.048;7.552;2024-01-06T09:37:54;24.40;;;15.25;;
53253;SDS011;75200;53.048;7.552;2024-01-06T09:40:21;19.60;;;13.93;;
53253;SDS011;75200;53.048;7.552;2024-01-06T09:42:48;24.20;;;15.90;;
53253;SDS011;75200;53.048;7.552;2024-01-06T09:45:15;25.35;;;16.63;;
53253;SDS011;75200;53.048;7.552;2024-01-06T09:47:41;25.75;;;16.48;;
53253;SDS011;75200;53.048;7.552;2024-01-06T09:50:10;20.88;;;14.85;;
53253;SDS011;75200;53.048;7.552;2024-01-06T09:52:39;22.10;;;15.20;;
53253;SDS011;75200;53.048;7.552;2024-01-06T09:55:10;25.00;;;16.20;;
53253;SDS011;75200;53.048;7.552;2024-01-06T09:57:36;20.25;;;14.43;;
53253;SDS011;75200;53.048;7.552;2024-01-06T10:00:02;22.92;;;15.57;;
53253;SDS011;75200;53.048;7.552;2024-01-06T10:02:29;21.70;;;15.02;;
53253;SDS011;75200;53.048;7.552;2024-01-06T10:04:57;25.15;;;16.45;;
53253;SDS011;75200;53.048;7.552;2024-01-06T10:07:25;23.10;;;15.73;;
53253;SDS011;75200;53.048;7.552;2024-01-06T10:09:51;23.38;;;15.55;;
53253;SDS011;75200;53.048;7.552;2024-01-06T10:12:23;21.52;;;14.38;;
53253;SDS011;75200;53.048;7.552;2024-01-06T10:14:50;21.02;;;14.40;;
53253;SDS011;75200;53.048;7.552;2024-01-06T10:17:16;24.35;;;16.50;;
53253;SDS011;75200;53.048;7.552;2024-01-06T10:19:44;25.73;;;16.48;;
53253;SDS011;75200;53.048;7.552;2024-01-06T10:22:10;25.75;;;16.25;;
53253;SDS011;75200;53.048;7.552;2024-01-06T10:24:37;19.92;;;14.45;;
53253;SDS011;75200;53.048;7.552;2024-01-06T10:27:03;23.85;;;15.73;;
53253;SDS011;75200;53.048;7.552;2024-01-06T10:29:29;21.85;;;14.80;;
53253;SDS011;75200;53.048;7.552;2024-01-06T10:31:55;25.95;;;16.92;;
53253;SDS011;75200;53.048;7.552;2024-01-06T10:34:22;27.00;;;17.20;;
53253;SDS011;75200;53.048;7.552;2024-01-06T10:36:49;26.65;;;16.58;;
53253;SDS011;75200;53.048;7.552;2024-01-06T10:39:17;20.98;;;14.23;;
53253;SDS011;75200;53.048;7.552;2024-01-06T10:41:43;20.35;;;14.57;;
53253;SDS011;75200;53.048;7.552;2024-01-06T10:44:10;22.15;;;14.50;;
53253;SDS011;75200;53.048;7.552;2024-01-06T10:46:37;23.90;;;15.45;;
53253;SDS011;75200;53.048;7.552;2024-01-06T10:49:04;26.20;;;15.93;;
53253;SDS011;75200;53.048;7.552;2024-01-06T10:51:33;22.35;;;15.25;;
53253;SDS011;75200;53.048;7.552;2024-01-06T10:54:00;22.08;;;15.20;;
53253;SDS011;75200;53.048;7.552;2024-01-06T10:56:27;24.90;;;15.73;;
53253;SDS011;75200;53.048;7.552;2024-01-06T10:58:55;22.70;;;14.82;;
53253;SDS011;75200;53.048;7.552;2024-01-06T11:01:22;17.90;;;12.27;;
53253;SDS011;75200;53.048;7.552;2024-01-06T11:03:52;17.60;;;11.82;;
53253;SDS011;75200;53.048;7.552;2024-01-06T11:06:19;24.80;;;16.33;;
53253;SDS011;75200;53.048;7.552;2024-01-06T11:08:49;26.55;;;17.38;;
53253;SDS011;75200;53.048;7.552;2024-01-06T11:11:17;24.15;;;16.40;;
53253;SDS011;75200;53.048;7.552;2024-01-06T11:13:43;26.40;;;17.77;;
53253;SDS011;75200;53.048;7.552;2024-01-06T11:16:10;20.98;;;15.10;;
53253;SDS011;75200;53.048;7.552;2024-01-06T11:18:37;25.13;;;16.95;;
53253;SDS011;75200;53.048;7.552;2024-01-06T11:21:25;22.52;;;15.40;;
53253;SDS011;75200;53.048;7.552;2024-01-06T11:26:38;26.40;;;17.05;;
53253;SDS011;75200;53.048;7.552;2024-01-06T11:29:05;23.77;;;16.02;;
53253;SDS011;75200;53.048;7.552;2024-01-06T11:31:31;22.58;;;14.50;;
53253;SDS011;75200;53.048;7.552;2024-01-06T11:34:11;20.65;;;13.57;;
53253;SDS011;75200;53.048;7.552;2024-01-06T11:36:38;23.58;;;16.23;;
53253;SDS011;75200;53.048;7.552;2024-01-06T11:39:05;21.85;;;15.38;;
53253;SDS011;75200;53.048;7.552;2024-01-06T11:41:50;22.08;;;14.63;;
53253;SDS011;75200;53.048;7.552;2024-01-06T11:44:22;21.38;;;15.25;;
53253;SDS011;75200;53.048;7.552;2024-01-06T11:46:48;26.23;;;17.42;;
53253;SDS011;75200;53.048;7.552;2024-01-06T11:49:18;23.92;;;16.23;;
53253;SDS011;75200;53.048;7.552;2024-01-06T11:51:45;24.70;;;16.30;;
53253;SDS011;75200;53.048;7.552;2024-01-06T11:54:12;21.60;;;14.05;;
53253;SDS011;75200;53.048;7.552;2024-01-06T11:56:38;21.08;;;14.27;;
53253;SDS011;75200;53.048;7.552;2024-01-06T11:59:05;22.48;;;15.32;;
53253;SDS011;75200;53.048;7.552;2024-01-06T12:01:37;24.30;;;16.52;;
53253;SDS011;75200;53.048;7.552;2024-01-06T12:04:03;25.27;;;16.23;;
53253;SDS011;75200;53.048;7.552;2024-01-06T12:06:30;21.25;;;14.60;;
53253;SDS011;75200;53.048;7.552;2024-01-06T12:09:06;24.90;;;16.40;;
53253;SDS011;75200;53.048;7.552;2024-01-06T12:11:32;23.95;;;15.88;;
53253;SDS011;75200;53.048;7.552;2024-01-06T12:13:58;24.88;;;16.50;;
53253;SDS011;75200;53.048;7.552;2024-01-06T12:16:24;23.98;;;16.42;;
53253;SDS011;75200;53.048;7.552;2024-01-06T12:18:55;21.73;;;14.45;;
53253;SDS011;75200;53.048;7.552;2024-01-06T12:21:23;22.65;;;14.70;;
53253;SDS011;75200;53.048;7.552;2024-01-06T12:23:49;26.33;;;17.00;;
53253;SDS011;75200;53.048;7.552;2024-01-06T12:26:18;25.70;;;16.55;;
53253;SDS011;75200;53.048;7.552;2024-01-06T12:28:50;24.77;;;16.02;;
53253;SDS011;75200;53.048;7.552;2024-01-06T12:31:17;23.77;;;15.98;;
53253;SDS011;75200;53.048;7.552;2024-01-06T12:33:45;27.52;;;17.55;;
53253;SDS011;75200;53.048;7.552;2024-01-06T12:36:11;23.05;;;15.40;;
53253;SDS011;75200;53.048;7.552;2024-01-06T12:38:38;28.88;;;17.38;;
53253;SDS011;75200;53.048;7.552;2024-01-06T12:41:04;22.85;;;15.45;;
53253;SDS011;75200;53.048;7.552;2024-01-06T12:43:30;27.25;;;17.55;;
53253;SDS011;75200;53.048;7.552;2024-01-06T12:45:56;28.02;;;17.92;;
53253;SDS011;75200;53.048;7.552;2024-01-06T12:48:23;24.67;;;16.52;;
53253;SDS011;75200;53.048;7.552;2024-01-06T12:50:49;22.63;;;16.73;;
53253;SDS011;75200;53.048;7.552;2024-01-06T12:53:15;21.45;;;14.85;;
53253;SDS011;75200;53.048;7.552;2024-01-06T12:55:45;26.83;;;17.33;;
53253;SDS011;75200;53.048;7.552;2024-01-06T12:58:11;27.25;;;17.25;;
53253;SDS011;75200;53.048;7.552;2024-01-06T13:00:37;24.33;;;16.02;;
53253;SDS011;75200;53.048;7.552;2024-01-06T13:03:05;28.15;;;16.23;;
53253;SDS011;75200;53.048;7.552;2024-01-06T13:05:31;24.00;;;15.30;;
53253;SDS011;75200;53.048;7.552;2024-01-06T13:07:57;25.60;;;16.17;;
53253;SDS011;75200;53.048;7.552;2024-01-06T13:10:23;23.85;;;15.93;;
53253;SDS011;75200;53.048;7.552;2024-01-06T13:12:50;25.05;;;15.30;;
53253;SDS011;75200;53.048;7.552;2024-01-06T13:15:16;21.77;;;15.32;;
53253;SDS011;75200;53.048;7.552;2024-01-06T13:17:42;25.25;;;16.42;;
53253;SDS011;75200;53.048;7.552;2024-01-06T13:20:08;22.65;;;15.48;;
53253;SDS011;75200;53.048;7.552;2024-01-06T13:22:34;26.00;;;16.65;;
53253;SDS011;75200;53.048;7.552;2024-01-06T13:25:00;26.45;;;16.80;;
53253;SDS011;75200;53.048;7.552;2024-01-06T13:27:26;23.92;;;16.15;;
53253;SDS011;75200;53.048;7.552;2024-01-06T13:29:53;25.63;;;16.13;;
53253;SDS011;75200;53.048;7.552;2024-01-06T13:32:19;21.50;;;14.68;;
53253;SDS011;75200;53.048;7.552;2024-01-06T13:34:47;25.00;;;16.10;;
53253;SDS011;75200;53.048;7.552;2024-01-06T13:39:47;26.40;;;15.95;;
53253;SDS011;75200;53.048;7.552;2024-01-06T13:42:13;25.60;;;15.52;;
53253;SDS011;75200;53.048;7.552;2024-01-06T13:44:39;23.08;;;14.77;;
53253;SDS011;75200;53.048;7.552;2024-01-06T13:47:06;25.05;;;15.85;;
53253;SDS011;75200;53.048;7.552;2024-01-06T13:49:32;26.48;;;16.70;;
53253;SDS011;75200;53.048;7.552;2024-01-06T13:51:58;28.08;;;17.30;;
53253;SDS011;75200;53.048;7.552;2024-01-06T13:54:24;26.05;;;16.95;;
53253;SDS011;75200;53.048;7.552;2024-01-06T13:56:50;27.40;;;17.13;;
53253;SDS011;75200;53.048;7.552;2024-01-06T13:59:17;30.55;;;19.30;;
53253;SDS011;75200;53.048;7.552;2024-01-06T14:01:43;30.00;;;17.85;;
53253;SDS011;75200;53.048;7.552;2024-01-06T14:04:09;28.38;;;17.55;;
53253;SDS011;75200;53.048;7.552;2024-01-06T14:06:35;31.52;;;18.20;;
53253;SDS011;75200;53.048;7.552;2024-01-06T14:09:04;29.23;;;18.25;;
53253;SDS011;75200;53.048;7.552;2024-01-06T14:11:30;27.63;;;16.67;;
53253;SDS011;75200;53.048;7.552;2024-01-06T14:13:57;28.27;;;17.13;;
53253;SDS011;75200;53.048;7.552;2024-01-06T14:16:23;28.70;;;17.30;;
53253;SDS011;75200;53.048;7.552;2024-01-06T14:18:49;25.15;;;15.73;;
53253;SDS011;75200;53.048;7.552;2024-01-06T14:21:16;31.63;;;16.17;;
53253;SDS011;75200;53.048;7.552;2024-01-06T14:23:47;29.95;;;16.77;;